createdAt,value
2019-05-01T00:01:27.045Z,17.93
2019-05-01T00:04:00.999Z,11.80
2019-05-01T00:06:34.875Z,9.67
2019-05-01T00:09:12.409Z,14.60
2019-05-01T00:11:46.450Z,15.40
2019-05-01T00:14:20.037Z,16.53
2019-05-01T00:16:54.346Z,13.00
2019-05-01T00:19:28.339Z,12.18
2019-05-01T00:22:04.045Z,11.60
2019-05-01T00:24:38.411Z,8.65
2019-05-01T00:27:12.156Z,14.87
2019-05-01T00:29:46.154Z,8.33
2019-05-01T00:32:19.954Z,8.33
2019-05-01T00:34:55.540Z,8.73
2019-05-01T00:37:29.317Z,7.50
2019-05-01T00:40:04.299Z,12.30
2019-05-01T00:42:37.740Z,8.03
2019-05-01T00:45:11.707Z,11.38
2019-05-01T00:47:45.298Z,10.73
2019-05-01T00:50:21.233Z,18.12
2019-05-01T00:52:54.923Z,14.55
2019-05-01T00:55:37.761Z,7.77
2019-05-01T00:58:12.441Z,9.27
2019-05-01T01:00:49.979Z,8.97
2019-05-01T01:03:23.757Z,6.53
2019-05-01T01:05:57.571Z,11.60
2019-05-01T01:08:33.040Z,11.20
2019-05-01T01:11:07.107Z,14.00
2019-05-01T01:13:40.833Z,12.78
2019-05-01T01:16:14.765Z,8.80
2019-05-01T01:18:48.804Z,10.37
2019-05-01T01:21:22.718Z,15.10
2019-05-01T01:23:56.830Z,22.53
2019-05-01T01:26:31.919Z,9.23
2019-05-01T01:29:06.757Z,8.30
2019-05-01T01:31:40.489Z,17.97
2019-05-01T01:34:14.604Z,10.88
2019-05-01T01:36:48.319Z,9.33
2019-05-01T01:39:22.794Z,8.17
2019-05-01T01:41:57.339Z,12.33
2019-05-01T01:44:31.596Z,13.17
2019-05-01T01:47:06.896Z,10.08
2019-05-01T01:49:49.934Z,18.55
2019-05-01T01:52:24.417Z,9.40
2019-05-01T01:54:59.375Z,7.77
2019-05-01T01:57:33.030Z,11.30
2019-05-01T02:00:08.072Z,9.17
2019-05-01T03:19:13.325Z,15.23
2019-05-01T03:21:53.178Z,20.67
2019-05-01T03:24:33.390Z,20.00
2019-05-01T03:27:11.573Z,13.05
2019-05-01T03:29:46.164Z,19.27
2019-05-01T03:32:27.715Z,10.20
2019-05-01T03:35:04.982Z,9.83
2019-05-01T03:37:39.432Z,22.03
2019-05-01T03:40:14.562Z,9.40
2019-05-01T03:42:48.545Z,15.07
2019-05-01T03:45:25.285Z,13.97
2019-05-01T03:47:59.640Z,22.70
2019-05-01T03:50:33.554Z,17.93
2019-05-01T03:53:07.631Z,14.20
2019-05-01T03:55:41.386Z,14.00
2019-05-01T03:58:16.904Z,10.05
2019-05-01T04:00:53.115Z,9.97
2019-05-01T04:03:26.918Z,8.17
2019-05-01T04:06:00.960Z,9.50
2019-05-01T04:08:34.907Z,10.50
2019-05-01T04:11:08.698Z,6.93
2019-05-01T04:13:42.606Z,16.80
2019-05-01T04:16:16.440Z,19.23
2019-05-01T04:18:50.216Z,11.87
2019-05-01T04:21:24.325Z,21.63
2019-05-01T04:24:00.523Z,18.93
2019-05-01T04:26:34.264Z,16.73
2019-05-01T04:29:08.292Z,11.20
2019-05-01T04:31:42.746Z,11.07
2019-05-01T04:34:16.689Z,20.77
2019-05-01T04:36:51.855Z,14.23
2019-05-01T04:39:27.904Z,16.20
2019-05-01T04:42:01.555Z,22.50
2019-05-01T04:44:35.556Z,15.20
2019-05-01T04:47:09.421Z,24.07
2019-05-01T04:49:43.835Z,11.63
2019-05-01T04:52:18.057Z,17.07
2019-05-01T04:54:52.111Z,19.30
2019-05-01T04:57:29.933Z,32.33
2019-05-01T05:00:04.363Z,22.73
2019-05-01T05:02:39.036Z,21.70
2019-05-01T05:05:13.493Z,28.03
2019-05-01T05:07:47.655Z,22.73
2019-05-01T05:10:21.784Z,25.90
2019-05-01T05:12:56.416Z,35.60
2019-05-01T05:15:30.909Z,26.80
2019-05-01T05:18:05.263Z,25.40
2019-05-01T05:20:39.482Z,60.20
2019-05-01T05:23:14.567Z,30.57
2019-05-01T05:25:51.570Z,12.00
2019-05-01T05:28:27.132Z,44.13
2019-05-01T05:31:02.678Z,28.33
2019-05-01T05:33:40.732Z,35.80
2019-05-01T05:36:19.453Z,25.70
2019-05-01T05:38:54.834Z,18.13
2019-05-01T05:41:30.013Z,27.53
2019-05-01T05:44:04.367Z,27.93
2019-05-01T05:46:38.920Z,47.77
2019-05-01T05:49:12.920Z,28.90
2019-05-01T05:51:48.583Z,27.43
2019-05-01T05:54:24.854Z,28.57
2019-05-01T05:57:01.150Z,32.83
2019-05-01T05:59:37.076Z,29.50
2019-05-01T06:02:13.766Z,31.37
2019-05-01T06:04:49.659Z,25.60
2019-05-01T06:07:27.096Z,25.45
2019-05-01T06:10:03.757Z,19.43
2019-05-01T06:12:41.754Z,30.00
2019-05-01T06:15:17.047Z,33.13
2019-05-01T06:17:51.549Z,30.33
2019-05-01T06:20:25.867Z,28.03
2019-05-01T06:23:02.020Z,19.27
2019-05-01T06:25:37.461Z,24.33
2019-05-01T06:28:11.849Z,32.45
2019-05-01T06:30:48.859Z,20.23
2019-05-01T06:33:22.113Z,26.87
2019-05-01T06:35:56.094Z,41.43
2019-05-01T06:38:31.480Z,36.63
2019-05-01T06:41:05.045Z,27.33
2019-05-01T06:43:40.077Z,33.70
2019-05-01T06:46:14.005Z,26.47
2019-05-01T06:48:53.437Z,23.27
2019-05-01T06:51:27.659Z,35.77
2019-05-01T06:54:01.671Z,31.30
2019-05-01T06:56:39.818Z,37.87
2019-05-01T06:59:15.821Z,22.37
2019-05-01T07:01:58.031Z,16.90
2019-05-01T07:04:32.188Z,24.83
2019-05-01T07:07:06.654Z,28.20
2019-05-01T07:09:44.088Z,33.85
2019-05-01T07:12:18.539Z,29.57
2019-05-01T07:14:53.225Z,23.20
2019-05-01T07:17:27.035Z,44.33
2019-05-01T07:20:01.355Z,54.00
2019-05-01T07:22:37.163Z,35.17
2019-05-01T07:25:12.423Z,51.17
2019-05-01T07:27:48.183Z,33.05
2019-05-01T07:30:24.466Z,34.67
2019-05-01T07:32:58.930Z,31.13
2019-05-01T07:35:36.842Z,27.80
2019-05-01T07:38:12.238Z,31.50
2019-05-01T07:40:46.342Z,34.53
2019-05-01T07:43:23.954Z,45.63
2019-05-01T07:45:56.919Z,28.63
2019-05-01T07:48:41.093Z,37.33
2019-05-01T07:51:14.044Z,32.05
2019-05-01T07:53:49.996Z,28.90
2019-05-01T07:56:28.017Z,28.93
2019-05-01T07:59:01.228Z,20.23
2019-05-01T08:01:37.936Z,26.40
2019-05-01T08:04:13.751Z,20.70
2019-05-01T08:06:51.944Z,30.60
2019-05-01T08:09:22.995Z,29.67
2019-05-01T08:11:56.758Z,19.57
2019-05-01T08:14:30.539Z,22.33
2019-05-01T08:17:04.554Z,19.17
2019-05-01T08:19:39.459Z,43.07
2019-05-01T08:22:13.409Z,49.53
2019-05-01T08:24:47.014Z,21.87
2019-05-01T08:27:21.391Z,23.37
2019-05-01T08:29:54.950Z,28.40
2019-05-01T08:32:28.777Z,33.87
2019-05-01T08:35:03.466Z,27.37
2019-05-01T08:37:37.344Z,29.83
2019-05-01T08:40:15.823Z,35.15
2019-05-01T08:42:47.641Z,24.40
2019-05-01T08:45:22.276Z,24.95
2019-05-01T08:48:00.383Z,22.30
2019-05-01T08:50:32.592Z,26.17
2019-05-01T08:53:06.306Z,33.70
2019-05-01T08:55:44.915Z,16.57
2019-05-01T08:58:15.939Z,24.77
2019-05-01T09:00:51.103Z,19.10
2019-05-01T09:03:25.236Z,19.42
2019-05-01T09:05:59.050Z,17.52
2019-05-01T09:08:33.346Z,17.12
2019-05-01T09:11:07.455Z,30.07
2019-05-01T09:13:41.768Z,29.50
2019-05-01T09:16:19.167Z,27.13
2019-05-01T09:18:53.801Z,22.10
2019-05-01T09:21:27.731Z,27.40
2019-05-01T09:24:01.778Z,26.17
2019-05-01T09:26:35.865Z,26.57
2019-05-01T09:29:11.024Z,22.47
2019-05-01T09:31:44.928Z,24.10
2019-05-01T09:34:21.009Z,16.43
2019-05-01T09:36:55.010Z,14.40
2019-05-01T09:39:29.015Z,25.40
2019-05-01T09:42:02.997Z,21.33
2019-05-01T09:44:37.870Z,26.83
2019-05-01T09:47:12.384Z,18.80
2019-05-01T09:49:48.654Z,28.10
2019-05-01T09:52:23.450Z,22.63
2019-05-01T09:54:57.664Z,32.33
2019-05-01T09:57:31.782Z,21.10
2019-05-01T10:00:06.865Z,17.83
2019-05-01T10:02:42.183Z,17.53
2019-05-01T10:05:28.222Z,23.47
2019-05-01T10:07:50.704Z,11.12
2019-05-01T10:10:28.941Z,18.17
2019-05-01T10:12:59.806Z,25.70
2019-05-01T10:15:33.444Z,13.17
2019-05-01T10:18:07.593Z,23.05
2019-05-01T10:20:42.364Z,13.10
2019-05-01T10:23:17.319Z,17.17
2019-05-01T10:25:51.252Z,19.67
2019-05-01T10:28:25.191Z,17.17
2019-05-01T10:30:59.176Z,17.77
2019-05-01T10:33:33.821Z,15.63
2019-05-01T10:36:08.023Z,17.37
2019-05-01T10:38:45.124Z,20.45
2019-05-01T10:41:19.647Z,25.57
2019-05-01T10:43:53.464Z,22.90
2019-05-01T10:46:27.049Z,17.33
2019-05-01T10:49:01.044Z,18.17
2019-05-01T10:51:35.977Z,22.77
2019-05-01T10:54:09.587Z,21.33
2019-05-01T10:56:44.478Z,21.33
2019-05-01T10:59:23.543Z,30.25
2019-05-01T11:01:59.410Z,28.23
2019-05-01T11:04:34.802Z,19.73
2019-05-01T11:07:10.248Z,27.37
2019-05-01T11:09:44.220Z,19.67
2019-05-01T11:12:17.805Z,18.93
2019-05-01T11:14:51.447Z,20.03
2019-05-01T11:17:25.296Z,20.50
2019-05-01T11:20:01.852Z,18.73
2019-05-01T11:22:35.863Z,20.30
2019-05-01T11:25:10.862Z,19.37
2019-05-01T11:27:44.709Z,15.97
2019-05-01T11:30:18.734Z,20.90
2019-05-01T11:32:52.476Z,20.20
2019-05-01T11:35:25.986Z,28.80
2019-05-01T11:38:00.052Z,16.97
2019-05-01T11:40:33.791Z,19.13
2019-05-01T11:43:07.708Z,24.17
2019-05-01T11:45:41.383Z,16.17
2019-05-01T11:48:15.659Z,15.97
2019-05-01T11:50:51.088Z,25.03
2019-05-01T11:53:26.312Z,24.57
2019-05-01T11:56:00.600Z,26.03
2019-05-01T11:58:34.648Z,19.40
2019-05-01T12:01:08.475Z,24.23
2019-05-01T12:03:53.969Z,21.35
2019-05-01T12:06:27.875Z,14.90
2019-05-01T12:09:01.846Z,22.83
2019-05-01T12:11:35.672Z,18.47
2019-05-01T12:14:10.617Z,20.20
2019-05-01T12:16:44.279Z,28.67
2019-05-01T12:19:19.149Z,23.97
2019-05-01T12:21:54.904Z,22.30
2019-05-01T12:24:28.557Z,26.33
2019-05-01T12:27:02.304Z,25.83
2019-05-01T12:29:36.156Z,27.57
2019-05-01T12:32:10.358Z,27.63
2019-05-01T12:34:44.157Z,24.83
2019-05-01T12:37:17.981Z,23.42
2019-05-01T12:39:54.089Z,31.00
2019-05-01T12:42:28.370Z,27.50
2019-05-01T12:45:02.252Z,29.93
2019-05-01T12:47:38.075Z,27.63
2019-05-01T12:50:12.240Z,24.13
2019-05-01T12:52:46.099Z,27.70
2019-05-01T12:55:19.912Z,30.07
2019-05-01T12:57:53.795Z,31.17
2019-05-01T13:00:47.029Z,26.00
2019-05-01T13:03:27.101Z,34.03
2019-05-01T13:06:01.073Z,27.70
2019-05-01T13:08:34.669Z,29.87
2019-05-01T13:11:09.808Z,25.73
2019-05-01T13:13:44.817Z,38.87
2019-05-01T13:16:18.711Z,41.43
2019-05-01T13:18:52.250Z,37.70
2019-05-01T13:21:26.098Z,47.23
2019-05-01T13:23:59.841Z,43.77
2019-05-01T13:26:34.364Z,57.00
2019-05-01T13:29:09.510Z,48.13
2019-05-01T13:31:44.728Z,49.43
2019-05-01T13:34:18.409Z,52.63
2019-05-01T13:37:02.348Z,36.87
2019-05-01T13:39:27.005Z,36.07
2019-05-01T13:42:01.100Z,39.43
2019-05-01T13:44:34.876Z,33.80
2019-05-01T13:47:10.124Z,41.67
2019-05-01T13:49:45.317Z,36.10
2019-05-01T13:52:20.697Z,43.40
2019-05-01T13:54:54.437Z,36.57
2019-05-01T13:57:28.016Z,31.80
2019-05-01T14:00:02.061Z,36.30
2019-05-01T14:02:36.005Z,37.60
2019-05-01T14:05:12.928Z,44.70
2019-05-01T14:07:46.842Z,38.77
2019-05-01T14:10:22.083Z,45.07
2019-05-01T14:12:56.321Z,33.47
2019-05-01T14:15:30.341Z,42.33
2019-05-01T14:18:04.064Z,39.63
2019-05-01T14:20:38.572Z,37.93
2019-05-01T14:23:13.800Z,39.77
2019-05-01T14:25:47.658Z,42.30
2019-05-01T14:28:21.276Z,35.43
2019-05-01T14:30:55.089Z,42.67
2019-05-01T14:33:28.966Z,46.40
2019-05-01T14:36:02.659Z,53.40
2019-05-01T14:38:36.723Z,46.70
2019-05-01T14:41:10.899Z,53.40
2019-05-01T14:43:45.928Z,52.97
2019-05-01T14:46:21.505Z,52.47
2019-05-01T14:48:56.821Z,53.63
2019-05-01T14:51:30.943Z,52.07
2019-05-01T14:54:04.809Z,50.10
2019-05-01T14:56:38.595Z,56.90
2019-05-01T14:59:12.256Z,53.28
2019-05-01T15:01:47.139Z,46.27
2019-05-01T15:04:20.525Z,50.60
2019-05-01T15:06:54.355Z,50.45
2019-05-01T15:09:29.013Z,47.90
2019-05-01T15:12:02.703Z,57.07
2019-05-01T15:14:36.196Z,51.37
2019-05-01T15:17:11.173Z,52.27
2019-05-01T15:19:44.502Z,38.13
2019-05-01T15:22:18.366Z,51.47
2019-05-01T15:24:52.247Z,47.13
2019-05-01T15:27:26.063Z,41.60
2019-05-01T15:29:59.917Z,48.13
2019-05-01T15:32:33.683Z,56.80
2019-05-01T15:35:08.136Z,49.43
2019-05-01T15:37:41.821Z,42.30
2019-05-01T15:40:15.821Z,39.87
2019-05-01T15:42:51.225Z,30.77
2019-05-01T15:45:25.122Z,39.87
2019-05-01T15:47:58.955Z,43.95
2019-05-01T15:50:33.980Z,42.77
2019-05-01T15:53:09.436Z,38.60
2019-05-01T15:55:47.453Z,37.20
2019-05-01T15:58:21.055Z,46.60
2019-05-01T16:00:56.186Z,42.00
2019-05-01T16:03:29.923Z,38.93
2019-05-01T16:06:03.527Z,44.97
2019-05-01T16:08:38.869Z,38.47
2019-05-01T16:11:14.588Z,35.50
2019-05-01T16:13:50.012Z,43.80
2019-05-01T16:16:23.849Z,34.90
2019-05-01T16:18:57.912Z,41.30
2019-05-01T16:21:32.060Z,42.57
2019-05-01T16:24:06.236Z,46.03
2019-05-01T16:26:39.881Z,28.30
2019-05-01T16:29:14.709Z,35.88
2019-05-01T16:31:48.093Z,34.83
2019-05-01T16:34:21.914Z,40.97
2019-05-01T16:36:55.479Z,32.93
2019-05-01T16:39:29.138Z,37.63
2019-05-01T16:42:02.812Z,32.33
2019-05-01T16:44:36.604Z,32.73
2019-05-01T16:47:10.283Z,32.33
2019-05-01T16:49:44.595Z,30.50
2019-05-01T16:52:18.720Z,31.67
2019-05-01T16:54:59.376Z,38.28
2019-05-01T16:57:28.801Z,26.97
2019-05-01T17:00:02.451Z,35.83
2019-05-01T17:02:36.307Z,37.83
2019-05-01T17:05:10.448Z,42.53
2019-05-01T17:07:46.720Z,45.93
2019-05-01T17:10:20.797Z,36.10
2019-05-01T17:12:54.409Z,40.23
2019-05-01T17:15:28.129Z,38.63
2019-05-01T17:18:03.560Z,34.03
2019-05-01T17:20:37.513Z,52.10
2019-05-01T17:23:11.107Z,55.27
2019-05-01T17:25:44.624Z,34.75
2019-05-01T17:28:18.583Z,37.10
2019-05-01T17:30:52.371Z,32.47
2019-05-01T17:33:26.169Z,35.10
2019-05-01T17:35:59.854Z,33.33
2019-05-01T17:38:34.817Z,36.03
2019-05-01T17:41:10.618Z,24.17
2019-05-01T17:43:49.245Z,33.08
2019-05-01T17:46:20.149Z,30.15
2019-05-01T17:48:55.493Z,34.13
2019-05-01T17:51:30.907Z,33.77
2019-05-01T17:54:04.935Z,38.20
2019-05-01T17:56:38.583Z,28.97
2019-05-01T17:59:12.224Z,43.20
2019-05-01T18:01:46.147Z,22.40
2019-05-01T18:04:19.816Z,29.77
2019-05-01T18:06:54.465Z,37.17
2019-05-01T18:09:28.131Z,28.62
2019-05-01T18:12:02.019Z,36.40
2019-05-01T18:14:36.952Z,29.17
2019-05-01T18:17:11.077Z,23.87
2019-05-01T18:19:45.080Z,35.58
2019-05-01T18:22:19.152Z,27.10
2019-05-01T18:24:53.876Z,32.88
2019-05-01T18:27:27.635Z,39.85
2019-05-01T18:30:01.092Z,26.70
2019-05-01T18:32:36.340Z,29.23
2019-05-01T18:35:14.047Z,19.82
2019-05-01T18:37:45.385Z,27.65
2019-05-01T18:40:19.164Z,27.27
2019-05-01T18:42:52.923Z,22.10
2019-05-01T18:45:54.298Z,33.07
2019-05-01T18:48:29.677Z,14.13
2019-05-01T18:51:04.356Z,21.37
2019-05-01T18:53:38.350Z,15.43
2019-05-01T18:56:11.730Z,28.00
2019-05-01T18:58:46.626Z,23.62
2019-05-01T19:01:20.427Z,24.67
2019-05-01T19:03:54.258Z,25.00
2019-05-01T19:06:40.383Z,37.77
2019-05-01T19:09:14.225Z,17.17
2019-05-01T19:11:37.915Z,16.83
2019-05-01T19:14:11.862Z,24.53
2019-05-01T19:16:47.120Z,28.45
2019-05-01T19:19:21.162Z,22.55
2019-05-01T19:21:55.054Z,20.33
2019-05-01T19:24:32.506Z,21.77
2019-05-01T19:27:04.550Z,25.47
2019-05-01T19:29:38.473Z,26.70
2019-05-01T19:32:11.921Z,36.27
2019-05-01T19:34:45.732Z,27.63
2019-05-01T19:37:21.871Z,29.30
2019-05-01T19:39:55.175Z,29.27
2019-05-01T19:42:29.075Z,22.62
2019-05-01T19:45:03.365Z,34.63
2019-05-01T19:47:37.164Z,26.57
2019-05-01T19:50:10.866Z,20.17
2019-05-01T19:52:44.435Z,34.73
2019-05-01T19:55:17.979Z,20.43
2019-05-01T19:57:51.571Z,19.02
2019-05-01T20:00:53.507Z,31.67
2019-05-01T20:03:30.623Z,29.87
2019-05-01T20:06:06.174Z,28.77
2019-05-01T20:08:40.258Z,43.20
2019-05-01T20:11:15.287Z,27.95
2019-05-01T20:13:49.011Z,26.67
2019-05-01T20:16:22.643Z,28.27
2019-05-01T20:18:56.161Z,13.83
2019-05-01T20:21:29.867Z,22.97
2019-05-01T20:24:04.256Z,29.07
2019-05-01T20:26:38.330Z,22.80
2019-05-01T20:29:12.393Z,25.60
2019-05-01T20:31:50.839Z,28.33
2019-05-01T20:34:22.416Z,19.27
2019-05-01T20:36:56.068Z,30.20
2019-05-01T20:39:29.531Z,19.57
2019-05-01T20:42:03.359Z,23.83
2019-05-01T20:44:37.143Z,28.03
2019-05-01T20:47:10.967Z,26.52
2019-05-01T20:49:44.698Z,24.80
2019-05-01T20:52:18.568Z,20.73
2019-05-01T20:54:52.293Z,27.73
2019-05-01T20:57:25.774Z,23.27
2019-05-01T20:59:59.714Z,23.30
2019-05-01T21:02:33.446Z,27.40
2019-05-01T21:05:07.632Z,28.50
2019-05-01T21:07:41.193Z,19.60
2019-05-01T21:10:24.578Z,22.47
2019-05-01T21:12:49.877Z,22.23
2019-05-01T21:15:24.913Z,29.03
2019-05-01T21:17:59.822Z,24.32
2019-05-01T21:20:33.921Z,21.13
2019-05-01T21:23:11.652Z,32.27
2019-05-01T21:25:54.956Z,26.00
2019-05-01T21:28:29.994Z,21.07
2019-05-01T21:31:04.080Z,23.53
2019-05-01T21:33:40.798Z,23.27
2019-05-01T21:36:14.802Z,22.63
2019-05-01T21:38:48.471Z,22.17
2019-05-01T21:41:22.473Z,28.13
2019-05-01T21:43:56.053Z,28.97
2019-05-01T21:46:30.167Z,26.70
2019-05-01T21:49:03.664Z,34.40
2019-05-01T21:51:41.512Z,42.63
2019-05-01T21:54:16.053Z,33.03
2019-05-01T21:56:48.942Z,21.00
2019-05-01T21:59:22.869Z,30.33
2019-05-01T22:01:56.776Z,29.37
2019-05-01T22:04:32.002Z,26.83
2019-05-01T22:07:05.936Z,30.67
2019-05-01T22:09:39.595Z,36.30
2019-05-01T22:12:14.448Z,29.57
2019-05-01T22:14:48.629Z,29.13
2019-05-01T22:17:22.542Z,28.93
2019-05-01T22:19:56.199Z,27.13
2019-05-01T22:22:29.946Z,34.00
2019-05-01T22:25:03.814Z,28.67
2019-05-01T22:27:39.137Z,29.13
2019-05-01T22:30:14.074Z,32.23
2019-05-01T22:32:47.644Z,26.65
2019-05-01T22:35:21.356Z,26.47
2019-05-01T22:37:55.030Z,32.87
2019-05-01T22:40:28.735Z,29.07
2019-05-01T22:43:02.476Z,29.30
2019-05-01T22:45:36.223Z,22.83
2019-05-01T22:48:09.938Z,32.00
2019-05-01T22:50:44.228Z,36.63
2019-05-01T22:53:18.318Z,29.30
2019-05-01T22:55:52.117Z,32.20
2019-05-01T22:58:25.774Z,30.37
2019-05-01T23:01:00.602Z,23.73
2019-05-01T23:03:40.533Z,37.13
2019-05-01T23:06:09.686Z,29.65
2019-05-01T23:08:43.578Z,29.73
2019-05-01T23:11:20.053Z,28.80
2019-05-01T23:13:52.472Z,30.53
2019-05-01T23:16:28.742Z,26.43
2019-05-01T23:19:00.952Z,31.80
2019-05-01T23:21:34.704Z,26.68
2019-05-01T23:24:08.370Z,46.37
2019-05-01T23:26:42.016Z,27.53
2019-05-01T23:29:15.624Z,21.67
2019-05-01T23:31:49.296Z,36.00
2019-05-01T23:34:27.904Z,23.93
2019-05-01T23:37:01.348Z,30.73
2019-05-01T23:39:40.441Z,23.27
2019-05-01T23:42:09.966Z,25.53
2019-05-01T23:44:44.996Z,23.20
2019-05-01T23:47:18.776Z,26.77
2019-05-01T23:49:53.698Z,21.27
2019-05-01T23:52:27.488Z,18.43
2019-05-01T23:55:00.912Z,25.13
2019-05-01T23:57:35.997Z,31.33
